KFHU

Sierra Vista Municipal-Libby AAF Airport

Fort Huachuca Sierra Vista, Arizona, USA
TAF KFHU 181802Z 1818/1924 VRB06KT 9999 SCT140 QNH3021INS BECMG 1818/1819 22009KT 9999 VCSH SCT070 BKN120 QNH3014INS TEMPO 1822/1901 26015G25KT VCTS SCT070CB BKN120 BECMG 1902/1903 24009KT 9999 NSW SCT070 SCT180 QNH3018INS BECMG 1918/1919 33012KT 9999 VCTS SCT050CB SCT120 QNH3020INS TEMPO 1921/1924 VRB25G35KT 6000 -TSRA BKN050CB TX31/1823Z TN18/1912Z
Issued Valid From Valid To
Jul-18 @ 18:02 UTC
(4 hours ago)
Jul-18 @ 18:00 UTC
(5 hours ago)
Jul-20 @ 00:00 UTC
(-1 days ago)
Jul-18 @ 18:00 to Jul-20 @ 00:00
TAF KFHU 181802Z 1818/1924 VRB06KT 9999 SCT140 QNH3021INS
Wind Visibility Clouds Readings
Variable at 6 knots Greater than 6 miles
  • Scattered at 14,000' AGL
Altimeter 30.21" Hg
Pressure 1023 hPa
Becoming Jul-18 @ 18:00 to Jul-19 @ 02:00
BECMG 1818/1819 22009KT 9999 VCSH SCT070 BKN120 QNH3014INS
Wind Visibility Clouds Readings
220° at 9 knots Greater than 6 miles
  • Scattered at 7,000' AGL
  • Broken at 12,000' AGL
Altimeter 30.15" Hg
Pressure 1021 hPa
Temporary Jul-18 @ 22:00 to Jul-19 @ 01:00
TEMPO 1822/1901 26015G25KT VCTS SCT070CB BKN120
Wind Clouds Conditions
260° at 15 knots
 Gusting to 25 knots
  • Scattered at 7,000' AGL
  • Broken at 12,000' AGL
  • Area Thunderstorm
Becoming Jul-19 @ 02:00 to Jul-19 @ 18:00
BECMG 1902/1903 24009KT 9999 NSW SCT070 SCT180 QNH3018INS
Wind Visibility Clouds Conditions Readings
240° at 9 knots Greater than 6 miles
  • Scattered at 7,000' AGL
  • Scattered at 18,000' AGL
Altimeter 30.18" Hg
Pressure 1022 hPa
Becoming Jul-19 @ 18:00 to Jul-20 @ 00:00
BECMG 1918/1919 33012KT 9999 VCTS SCT050CB SCT120 QNH3020INS
Wind Visibility Clouds Conditions Readings
330° at 12 knots Greater than 6 miles
  • Scattered at 5,000' AGL
  • Scattered at 12,000' AGL
  • Area Thunderstorm
Altimeter 30.21" Hg
Pressure 1023 hPa
Temporary Jul-19 @ 21:00 to Jul-20 @ 00:00
TEMPO 1921/1924 VRB25G35KT 6000 -TSRA BKN050CB TX31/1823Z TN18/1912Z
Wind Visibility Clouds Conditions
Variable at 25 knots
 Gusting to 35 knots
31/73 miles
  • Broken at 5,000' AGL
  • Light Thunderstorm
  • Light Rain
TAF KFHU 181802Z 1818/1924 VRB06KT 9999 SCT140 QNH3021INS BECMG 1818/1819 22009KT 9999 VCSH SCT070 BKN120 QNH3014INS TEMPO 1822/1901 26015G25KT VCTS SCT070CB BKN120 BECMG 1902/1903 24009KT 9999 NSW SCT070 SCT180 QNH3018INS BECMG 1918/1919 33012KT 9999 VCTS SCT050CB SCT120 QNH3020INS TEMPO 1921/1924 VRB25G35KT 6000 -TSRA BKN050CB TX31/1823Z TN18/1912Z
Issued Jul-18 @ 18:02 UTC
(4 hours ago)
Valid From Jul-18 @ 18:00 UTC
(5 hours ago)
Valid To Jul-20 @ 00:00 UTC
(-1 days ago)
Jul-18 @ 18:00 - Jul-20 @ 00:00
Wind Visibility
Variable at 6 knots Greater than 6 miles
Clouds
  • Scattered at 14,000' AGL
Becoming Jul-18 @ 18:00 - Jul-19 @ 02:00
Wind Visibility
220° at 9 knots Greater than 6 miles
Clouds
  • Scattered at 7,000' AGL
  • Broken at 12,000' AGL
Temporary Jul-18 @ 22:00 - Jul-19 @ 01:00
Wind
260° at 15 knots
 Gusting to 25 knots
Clouds
  • Scattered at 7,000' AGL
  • Broken at 12,000' AGL
Conditions
  • Area Thunderstorm
Becoming Jul-19 @ 02:00 - Jul-19 @ 18:00
Wind Visibility
240° at 9 knots Greater than 6 miles
Clouds
  • Scattered at 7,000' AGL
  • Scattered at 18,000' AGL
Conditions
Becoming Jul-19 @ 18:00 - Jul-20 @ 00:00
Wind Visibility
330° at 12 knots Greater than 6 miles
Clouds
  • Scattered at 5,000' AGL
  • Scattered at 12,000' AGL
Conditions
  • Area Thunderstorm
Temporary Jul-19 @ 21:00 - Jul-20 @ 00:00
Wind Visibility
Variable at 25 knots
 Gusting to 35 knots
31/73 miles
Clouds
  • Broken at 5,000' AGL
Conditions
  • Light Thunderstorm
  • Light Rain